Time;durP1;ratioP1;P1;durP2;ratioP2;P2;SDS_P1;SDS_P2;PMS_P1;PMS_P2;Temp;Humidity;BMP_temperature;BMP_pressure;BME280_temperature;BME280_humidity;BME280_pressure;Samples;Min_cycle;Max_cycle;Signal;HPM_P1;HPM_P2
2021/09/07 00:01:08;;;;;;;29.63;19.65;;;;;;;18.99;57.08;102396.06;10521061;28;20040;-76
2021/09/07 00:06:08;;;;;;;35.83;18.92;;;;;;;19.48;57.15;102425.59;10520825;28;20472;-76
2021/09/07 00:11:09;;;;;;;28.73;19.38;;;;;;;19.46;57.14;102424.13;10538916;28;20119;-77
2021/09/07 00:16:09;;;;;;;32.97;20.50;;;;;;;19.46;57.67;102411.25;10520755;28;20436;-76
2021/09/07 00:21:10;;;;;;;28.98;17.90;;;;;;;19.20;57.41;102425.94;10520015;28;20032;-76
2021/09/07 00:26:10;;;;;;;32.05;20.23;;;;;;;19.38;57.39;102419.75;10546325;28;20391;-76
2021/09/07 00:31:10;;;;;;;33.97;20.70;;;;;;;19.32;57.74;102426.13;10527998;28;20079;-76
2021/09/07 00:36:11;;;;;;;29.95;19.92;;;;;;;19.31;57.56;102412.63;10545683;28;20062;-76
2021/09/07 00:41:11;;;;;;;29.08;20.05;;;;;;;19.26;57.24;102416.84;10545934;28;20123;-77
2021/09/07 00:46:12;;;;;;;28.85;19.85;;;;;;;19.03;56.83;102386.31;10527392;28;20391;-76
2021/09/07 00:51:12;;;;;;;36.47;22.08;;;;;;;19.00;57.17;102386.75;10510136;28;20117;-76
2021/09/07 00:56:12;;;;;;;29.98;19.73;;;;;;;19.08;57.19;102397.50;10527342;28;20422;-77
2021/09/07 01:01:13;;;;;;;27.17;18.45;;;;;;;19.06;57.33;102396.88;10527229;28;20070;-76
2021/09/07 01:06:13;;;;;;;39.63;22.33;;;;;;;18.93;57.45;102375.81;10526546;28;20032;-77
2021/09/07 01:11:14;;;;;;;36.90;22.98;;;;;;;18.66;57.77;102324.78;10544630;28;20048;-76
2021/09/07 01:16:14;;;;;;;44.47;20.58;;;;;;;18.77;57.61;102337.88;10526691;28;20029;-76
2021/09/07 01:21:15;;;;;;;28.30;19.42;;;;;;;19.10;57.59;102386.28;10544072;28;20036;-76
2021/09/07 01:26:17;;;;;;;30.02;19.00;;;;;;;18.52;57.58;102297.41;10526110;28;20036;-76
2021/09/07 01:31:17;;;;;;;36.15;20.80;;;;;;;19.12;57.30;102385.03;10544086;28;20032;-77
2021/09/07 01:36:18;;;;;;;27.40;20.48;;;;;;;18.32;57.30;102278.28;10525758;28;20064;-76
2021/09/07 01:41:18;;;;;;;33.20;21.25;;;;;;;18.68;57.41;102331.75;10543546;28;20090;-76
2021/09/07 01:46:19;;;;;;;34.67;21.15;;;;;;;18.82;58.00;102376.47;10543095;28;20506;-76
2021/09/07 01:51:19;;;;;;;38.15;23.05;;;;;;;18.10;58.07;102266.72;10541698;28;20060;-77
2021/09/07 01:56:19;;;;;;;27.65;20.52;;;;;;;18.80;57.76;102382.19;10507776;28;20034;-76
2021/09/07 02:01:20;;;;;;;30.55;22.80;;;;;;;18.78;57.47;102381.53;10543089;28;20040;-76
2021/09/07 02:06:20;;;;;;;33.20;22.75;;;;;;;18.67;57.45;102398.66;10542216;28;20048;-76
2021/09/07 02:11:21;;;;;;;39.75;23.92;;;;;;;18.45;57.60;102389.84;10507712;28;20533;-76
2021/09/07 02:16:21;;;;;;;29.17;19.67;;;;;;;18.19;57.56;102311.22;10541985;28;20032;-76
2021/09/07 02:21:21;;;;;;;41.40;21.40;;;;;;;18.63;58.32;102383.66;10541159;28;20517;-76
2021/09/07 02:26:22;;;;;;;34.35;22.52;;;;;;;17.99;58.78;102286.56;10541837;28;20024;-76
2021/09/07 02:31:22;;;;;;;37.05;23.92;;;;;;;18.55;58.53;102378.44;10542260;28;20036;-76
2021/09/07 02:36:24;;;;;;;36.88;24.38;;;;;;;18.38;58.58;102367.06;10541332;28;20047;-76
2021/09/07 02:41:24;;;;;;;38.00;22.95;;;;;;;18.50;58.21;102383.69;10523426;28;20067;-76
2021/09/07 02:46:25;;;;;;;30.88;22.50;;;;;;;18.32;58.12;102365.19;10540862;28;20040;-76
2021/09/07 02:51:26;;;;;;;46.42;24.58;;;;;;;18.10;58.62;102339.91;10540319;28;20060;-76
2021/09/07 02:56:26;;;;;;;37.63;25.67;;;;;;;18.08;58.68;102331.03;10506692;28;20055;-76
2021/09/07 03:01:26;;;;;;;43.55;26.20;;;;;;;18.39;58.82;102379.72;10540385;28;20039;-76
2021/09/07 03:06:27;;;;;;;49.63;25.10;;;;;;;18.05;58.64;102310.38;10539982;28;20063;-76
2021/09/07 03:11:27;;;;;;;39.40;26.02;;;;;;;18.33;58.45;102364.97;10522029;28;20040;-76
2021/09/07 03:16:33;;;;;;;41.58;26.58;;;;;;;18.28;58.75;102386.72;10521896;28;20040;-76
2021/09/07 03:21:34;;;;;;;50.13;27.60;;;;;;;17.80;58.95;102285.50;10506040;28;20395;-77
2021/09/07 03:26:34;;;;;;;47.30;28.73;;;;;;;18.19;59.00;102343.25;10521474;28;20123;-76
2021/09/07 03:31:34;;;;;;;44.78;26.55;;;;;;;18.10;59.32;102339.91;10504765;28;20114;-76
2021/09/07 03:36:35;;;;;;;50.03;26.10;;;;;;;18.15;59.11;102340.09;10521324;28;20109;-76
2021/09/07 03:41:35;;;;;;;34.38;26.15;;;;;;;18.25;59.27;102367.94;10539561;28;20029;-76
2021/09/07 03:46:36;;;;;;;44.45;25.45;;;;;;;18.23;59.43;102361.81;10539372;28;20028;-77
2021/09/07 03:51:36;;;;;;;43.17;27.85;;;;;;;18.27;59.08;102368.56;10538820;28;20051;-76
2021/09/07 03:56:37;;;;;;;42.10;27.58;;;;;;;18.35;59.10;102362.03;10540155;28;20182;-76
2021/09/07 04:01:37;;;;;;;45.88;26.33;;;;;;;18.46;59.54;102360.50;10547759;28;20044;-76
2021/09/07 04:06:38;;;;;;;38.80;26.98;;;;;;;18.59;59.05;102368.69;10547202;28;20040;-76
2021/09/07 04:11:38;;;;;;;48.38;25.98;;;;;;;18.66;59.21;102377.75;10547055;28;20554;-76
2021/09/07 04:16:39;;;;;;;36.33;25.00;;;;;;;18.37;59.13;102307.78;10547132;28;20036;-77
2021/09/07 04:21:39;;;;;;;46.60;26.20;;;;;;;18.64;59.41;102352.44;10545910;28;20036;-75
2021/09/07 04:26:40;;;;;;;43.10;25.08;;;;;;;18.49;58.98;102338.97;10546284;28;20123;-76
2021/09/07 04:31:42;;;;;;;37.58;26.13;;;;;;;18.58;58.89;102361.53;10487280;28;20070;-77
2021/09/07 04:36:42;;;;;;;39.42;26.33;;;;;;;18.18;59.76;102319.63;10546145;28;20032;-78
2021/09/07 04:41:42;;;;;;;45.88;26.23;;;;;;;18.47;59.26;102375.91;10528005;28;20039;-76
2021/09/07 04:46:43;;;;;;;48.05;25.98;;;;;;;18.30;59.27;102357.16;10545796;28;20455;-76
2021/09/07 04:51:43;;;;;;;44.20;27.73;;;;;;;18.45;59.50;102375.28;10545095;28;20222;-75
2021/09/07 04:56:44;;;;;;;39.03;24.50;;;;;;;18.48;59.43;102372.13;10527757;28;20496;-76
2021/09/07 05:01:44;;;;;;;47.28;28.00;;;;;;;18.16;59.57;102335.47;10527247;28;20044;-76
2021/09/07 05:06:44;;;;;;;45.15;26.70;;;;;;;18.01;59.38;102297.31;10526134;28;20051;-75
2021/09/07 05:11:45;;;;;;;35.72;22.67;;;;;;;18.54;59.76;102369.34;10543665;28;20043;-76
2021/09/07 05:16:45;;;;;;;42.10;27.27;;;;;;;17.93;59.93;102253.69;10525948;28;20119;-75
2021/09/07 05:21:46;;;;;;;62.78;30.30;;;;;;;18.38;60.06;102308.63;10524899;28;20040;-75
2021/09/07 05:26:46;;;;;;;47.00;27.10;;;;;;;18.85;59.92;102367.81;10543693;28;20063;-76
2021/09/07 05:31:46;;;;;;;52.28;29.08;;;;;;;18.88;59.69;102356.38;10525733;28;20111;-75
2021/09/07 05:36:47;;;;;;;40.25;23.67;;;;;;;19.30;59.51;102376.03;10525325;28;20040;-75
2021/09/07 05:41:48;;;;;;;37.55;26.13;;;;;;;19.48;59.22;102386.28;10543112;28;20046;-77
2021/09/07 05:46:49;;;;;;;49.92;26.05;;;;;;;19.69;58.87;102394.22;10542959;28;20414;-76
2021/09/07 05:51:49;;;;;;;44.33;25.95;;;;;;;19.64;59.33;102396.78;10542312;28;20070;-75
2021/09/07 05:56:49;;;;;;;46.33;26.02;;;;;;;19.91;59.07;102386.47;10525299;28;20032;-75
2021/09/07 06:01:50;;;;;;;47.63;27.13;;;;;;;19.83;58.95;102355.66;10524014;28;20115;-75
2021/09/07 06:06:51;;;;;;;44.28;27.65;;;;;;;19.71;58.58;102317.03;10542399;28;20101;-75
2021/09/07 06:11:51;;;;;;;53.92;28.15;;;;;;;20.19;59.08;102396.97;10524221;28;20205;-75
2021/09/07 06:16:52;;;;;;;39.70;26.73;;;;;;;19.63;58.68;102301.66;10523661;28;20032;-76
2021/09/07 06:21:52;;;;;;;52.22;25.90;;;;;;;20.76;57.63;102390.53;10505201;28;20380;-75
2021/09/07 06:26:53;;;;;;;41.75;25.17;;;;;;;20.78;57.78;102369.97;10522775;28;20119;-75
2021/09/07 06:31:53;;;;;;;33.13;23.30;;;;;;;21.20;57.41;102388.50;10540841;28;20107;-75
2021/09/07 06:36:54;;;;;;;44.47;26.58;;;;;;;21.44;56.49;102351.75;10540800;28;20054;-75
2021/09/07 06:41:55;;;;;;;31.58;23.55;;;;;;;21.44;56.41;102379.31;10505949;28;20475;-75
2021/09/07 06:46:55;;;;;;;35.85;22.63;;;;;;;21.36;57.01;102372.19;10505494;28;20063;-75
2021/09/07 06:51:55;;;;;;;43.00;24.08;;;;;;;21.54;57.30;102403.53;10539711;28;20130;-76
2021/09/07 06:56:56;;;;;;;38.40;24.85;;;;;;;21.72;56.45;102386.91;10540429;28;20391;-75
2021/09/07 07:01:56;;;;;;;52.25;23.85;;;;;;;23.48;53.86;102404.44;10522045;28;20392;-76
2021/09/07 07:06:57;;;;;;;32.67;21.05;;;;;;;25.34;50.15;102388.47;10521912;28;20170;-76
2021/09/07 07:11:57;;;;;;;39.83;21.55;;;;;;;25.31;50.43;102402.84;10539885;28;20047;-76
2021/09/07 07:16:57;;;;;;;24.95;18.42;;;;;;;26.34;48.41;102399.91;10521686;28;20060;-76
2021/09/07 07:21:58;;;;;;;30.52;21.27;;;;;;;27.23;47.08;102410.13;10539632;28;20033;-76
2021/09/07 07:26:59;;;;;;;36.90;23.73;;;;;;;27.18;45.91;102370.34;10539080;28;20032;-76
2021/09/07 07:32:00;;;;;;;27.45;18.95;;;;;;;27.44;45.26;102407.41;10503951;28;20066;-76
2021/09/07 07:37:01;;;;;;;31.38;24.05;;;;;;;27.70;44.79;102417.47;10521189;28;20067;-76
2021/09/07 07:42:01;;;;;;;36.72;22.10;;;;;;;27.91;43.79;102398.84;10520498;28;20105;-77
2021/09/07 07:47:02;;;;;;;36.92;21.25;;;;;;;28.73;42.54;102410.75;10538369;28;20036;-76
2021/09/07 07:52:03;;;;;;;24.25;17.35;;;;;;;29.00;40.96;102412.28;10537995;28;20047;-77
2021/09/07 07:57:03;;;;;;;22.05;16.77;;;;;;;28.56;38.15;102426.97;10538319;28;20040;-76
2021/09/07 08:02:03;;;;;;;22.08;14.57;;;;;;;27.97;38.56;102314.22;10520726;28;20098;-76
2021/09/07 08:07:04;;;;;;;29.17;17.73;;;;;;;29.49;39.12;102411.53;10538472;28;20119;-76
2021/09/07 08:12:05;;;;;;;23.40;15.93;;;;;;;30.36;40.77;102416.44;10539182;28;20078;-77
2021/09/07 08:17:05;;;;;;;20.08;13.98;;;;;;;31.02;37.53;102417.66;10521417;28;20032;-77
2021/09/07 08:22:06;;;;;;;27.33;15.80;;;;;;;30.97;35.86;102406.53;10520448;28;20036;-77
2021/09/07 08:27:06;;;;;;;17.90;13.63;;;;;;;30.41;38.14;102421.97;10520008;28;20111;-76
2021/09/07 08:32:07;;;;;;;24.88;15.43;;;;;;;30.46;38.74;102421.09;10519353;28;20483;-77
2021/09/07 08:37:07;;;;;;;19.05;13.80;;;;;;;30.17;38.61;102402.34;10538367;28;20048;-76
2021/09/07 08:42:10;;;;;;;21.20;13.43;;;;;;;30.02;38.58;102336.25;10537689;28;20094;-77
2021/09/07 08:47:14;;;;;;;17.05;14.88;;;;;;;30.92;37.66;102412.19;10544915;28;20471;-76
2021/09/07 08:52:15;;;;;;;19.90;14.23;;;;;;;31.43;36.88;102414.31;10526286;28;20056;-77
2021/09/07 08:57:16;;;;;;;16.90;11.88;;;;;;;30.90;36.56;102275.44;10544306;28;20036;-77
2021/09/07 09:02:17;;;;;;;15.60;13.32;;;;;;;31.61;35.33;102379.88;10526644;28;20030;-77
2021/09/07 09:07:19;;;;;;;17.15;13.02;;;;;;;32.14;34.51;102412.34;10525222;28;20149;-77
2021/09/07 09:12:33;;;;;;;24.02;13.75;;;;;;;32.21;36.01;102404.38;10544398;28;20040;-77
2021/09/07 09:17:33;;;;;;;13.73;12.32;;;;;;;31.96;34.19;102304.78;10525806;28;20494;-77
2021/09/07 09:22:47;;;;;;;22.58;14.65;;;;;;;32.95;36.79;102397.88;10524955;28;20039;-77
2021/09/07 09:27:54;;;;;;;16.27;12.65;;;;;;;32.86;34.61;102417.41;10543303;28;20024;-76
2021/09/07 09:32:54;;;;;;;16.10;14.10;;;;;;;32.26;37.23;102333.34;10543183;28;20036;-76
2021/09/07 09:37:55;;;;;;;22.52;14.35;;;;;;;32.67;32.17;102409.09;10542998;28;20035;-76
2021/09/07 09:42:57;;;;;;;15.90;14.20;;;;;;;32.71;34.68;102348.47;10525242;28;20039;-77
2021/09/07 09:47:57;;;;;;;15.65;13.35;;;;;;;33.33;31.38;102390.03;10542836;28;20494;-77
2021/09/07 09:52:58;;;;;;;19.75;15.90;;;;;;;33.14;32.18;102401.41;10523488;28;20110;-76
2021/09/07 09:57:59;;;;;;;19.63;13.90;;;;;;;33.43;31.71;102391.75;10507151;28;20063;-76
2021/09/07 10:03:01;;;;;;;16.67;10.82;;;;;;;32.99;32.33;102377.31;10542227;28;20471;-76
2021/09/07 10:08:02;;;;;;;13.52;11.80;;;;;;;33.83;35.22;102384.34;10541818;28;20050;-76
2021/09/07 10:13:03;;;;;;;20.13;13.30;;;;;;;34.28;38.01;102370.25;10523854;28;20024;-77
2021/09/07 10:24:03;;;;;;;16.00;9.77;;;;;;;33.64;31.62;102386.53;10524476;28;20062;-76
2021/09/07 10:29:07;;;;;;;15.15;11.27;;;;;;;33.99;30.60;102379.16;10539517;28;20048;-76
2021/09/07 10:34:07;;;;;;;19.27;12.10;;;;;;;34.32;31.14;102368.44;10540865;28;20027;-76
2021/09/07 10:39:08;;;;;;;15.07;9.93;;;;;;;34.59;33.91;102366.56;10523153;28;20035;-77
2021/09/07 10:44:09;;;;;;;14.32;10.95;;;;;;;34.43;28.11;102357.72;10505867;28;20062;-76
2021/09/07 10:49:28;;;;;;;14.20;9.43;;;;;;;35.34;37.37;102344.84;10540007;28;20035;-76
2021/09/07 10:54:29;;;;;;;13.43;9.90;;;;;;;36.30;28.24;102351.97;10523111;28;20084;-76
2021/09/07 10:59:46;;;;;;;13.00;11.70;;;;;;;35.78;33.11;102362.56;10522892;28;20051;-76
2021/09/07 11:04:50;;;;;;;12.65;10.32;;;;;;;34.62;34.45;102340.59;10541186;28;20104;-76
2021/09/07 11:09:52;;;;;;;13.23;9.93;;;;;;;35.80;30.39;102338.53;10521331;28;20036;-76
2021/09/07 11:15:04;;;;;;;11.80;10.55;;;;;;;35.56;30.75;102324.97;10539575;28;20044;-76
2021/09/07 11:20:06;;;;;;;12.05;10.82;;;;;;;35.58;32.42;102333.09;10538894;28;20032;-76
2021/09/07 11:25:18;;;;;;;12.23;10.40;;;;;;;35.25;29.68;102322.31;10539101;28;20040;-76
2021/09/07 11:30:26;;;;;;;11.65;10.48;;;;;;;34.76;32.42;102315.97;10504912;28;20436;-75
2021/09/07 11:35:27;;;;;;;13.23;10.45;;;;;;;33.93;29.92;102294.13;10539076;28;20054;-76
2021/09/07 11:40:27;;;;;;;19.90;12.32;;;;;;;34.73;30.00;102311.00;10520860;28;20028;-76
2021/09/07 11:45:29;;;;;;;12.27;11.00;;;;;;;34.82;40.41;102325.91;10538533;28;20563;-76
2021/09/07 11:50:39;;;;;;;17.75;12.65;;;;;;;34.03;31.62;102242.47;10537919;28;20504;-76
2021/09/07 11:55:50;;;;;;;14.68;12.05;;;;;;;34.91;34.02;102311.88;10504292;28;20497;-76
2021/09/07 12:00:58;;;;;;;19.95;13.10;;;;;;;34.65;31.93;102283.66;10538607;28;20028;-76
2021/09/07 12:05:58;;;;;;;14.77;10.90;;;;;;;34.83;30.34;102299.41;10520719;28;20455;-76
2021/09/07 12:10:59;;;;;;;15.77;11.00;;;;;;;34.55;31.24;102230.53;10520142;28;20048;-76
2021/09/07 12:16:00;;;;;;;13.20;10.73;;;;;;;35.13;29.78;102280.78;10503884;28;20069;-76
2021/09/07 12:21:10;;;;;;;11.63;9.80;;;;;;;34.26;37.45;102199.03;10510159;28;20169;-76
2021/09/07 12:26:11;;;;;;;7.53;6.82;;;;;;;34.30;30.81;102237.72;10545915;28;20414;-76
2021/09/07 12:31:14;;;;;;;19.17;8.88;;;;;;;34.97;29.53;102287.19;10528095;28;20039;-76
2021/09/07 12:36:16;;;;;;;11.55;7.93;;;;;;;35.29;36.73;102294.31;10545736;28;20476;-76
2021/09/07 12:41:19;;;;;;;8.38;7.78;;;;;;;34.77;28.72;102210.69;10527566;28;20090;-76
2021/09/07 12:46:20;;;;;;;11.13;7.35;;;;;;;34.62;29.45;102273.06;10545402;28;20111;-76
2021/09/07 12:51:22;;;;;;;12.10;7.38;;;;;;;34.86;28.68;102265.00;10526630;28;20040;-76
2021/09/07 12:56:22;;;;;;;6.57;5.93;;;;;;;34.80;29.06;102269.13;10545138;28;20035;-76
2021/09/07 13:01:24;;;;;;;10.15;7.00;;;;;;;34.63;41.90;102250.25;10544838;28;20487;-76
2021/09/07 13:06:25;;;;;;;7.28;6.20;;;;;;;34.10;30.01;102270.09;10526728;28;20040;-75
2021/09/07 13:11:25;;;;;;;7.45;6.80;;;;;;;33.53;30.89;102257.53;10509639;28;20383;-76
2021/09/07 13:16:26;;;;;;;8.43;7.63;;;;;;;32.70;31.70;102256.19;10544427;28;20052;-75
2021/09/07 13:21:28;;;;;;;8.15;7.30;;;;;;;31.96;33.48;102170.28;10542910;28;20396;-75
2021/09/07 13:26:28;;;;;;;15.57;7.72;;;;;;;32.74;33.92;102248.78;10543947;28;20035;-75
2021/09/07 13:31:29;;;;;;;7.50;6.80;;;;;;;32.83;32.31;102256.16;10525460;28;20036;-76
2021/09/07 13:36:29;;;;;;;8.05;7.30;;;;;;;33.31;35.04;102187.34;10543151;28;20036;-76
2021/09/07 13:41:30;;;;;;;7.97;7.17;;;;;;;33.92;32.90;102230.66;10543629;28;20047;-76
2021/09/07 13:46:30;;;;;;;9.80;8.88;;;;;;;33.33;31.39;102224.38;10524855;28;20279;-75
2021/09/07 13:51:31;;;;;;;13.02;7.72;;;;;;;33.80;33.11;102157.38;10542296;28;20480;-75
2021/09/07 13:56:31;;;;;;;11.00;8.15;;;;;;;34.13;32.51;102190.72;10508255;28;20502;-76
2021/09/07 14:01:32;;;;;;;10.98;8.27;;;;;;;33.57;34.96;102190.34;10542368;28;20032;-75
2021/09/07 14:06:32;;;;;;;12.07;8.73;;;;;;;33.69;33.41;102198.16;10524254;28;20128;-76
2021/09/07 14:11:32;;;;;;;9.45;7.10;;;;;;;33.01;32.91;102178.56;10541491;28;20032;-75
2021/09/07 14:16:33;;;;;;;8.93;8.02;;;;;;;32.86;32.44;102173.31;10541705;28;20431;-76
2021/09/07 14:21:33;;;;;;;11.38;7.00;;;;;;;33.16;37.54;102143.69;10522814;28;20044;-75
2021/09/07 14:26:33;;;;;;;11.25;7.70;;;;;;;32.79;32.33;102173.75;10541183;28;20024;-76
2021/09/07 14:31:35;;;;;;;9.88;8.18;;;;;;;32.32;33.19;102178.75;10541122;28;20094;-75
2021/09/07 14:36:36;;;;;;;8.52;7.70;;;;;;;32.58;41.78;102181.84;10541560;28;20365;-75
2021/09/07 14:41:38;;;;;;;8.53;7.73;;;;;;;32.83;33.24;102166.38;10539993;28;20036;-76
2021/09/07 14:46:39;;;;;;;11.32;7.95;;;;;;;31.94;34.49;102144.56;10541152;28;20292;-75
2021/09/07 14:51:39;;;;;;;11.57;6.50;;;;;;;31.58;35.21;102159.25;10539961;28;20412;-75
2021/09/07 14:56:40;;;;;;;10.23;7.00;;;;;;;31.18;36.39;102172.84;10540804;28;20032;-75
2021/09/07 15:01:40;;;;;;;10.70;8.75;;;;;;;30.52;38.65;102146.75;10521944;28;20028;-75
2021/09/07 15:06:41;;;;;;;16.23;9.07;;;;;;;29.76;36.23;102145.81;10539629;28;20078;-75
2021/09/07 15:11:42;;;;;;;8.68;7.07;;;;;;;29.69;41.36;102152.88;10521830;28;20039;-74
2021/09/07 15:16:43;;;;;;;8.82;7.43;;;;;;;29.62;37.97;102142.06;10539339;28;20040;-75
2021/09/07 15:21:43;;;;;;;9.52;7.95;;;;;;;29.81;38.99;102140.16;10538843;28;20036;-75
2021/09/07 15:26:43;;;;;;;10.85;9.32;;;;;;;29.44;40.98;102149.19;10521601;28;20039;-75
2021/09/07 15:31:44;;;;;;;7.78;7.05;;;;;;;29.31;42.72;102141.53;10539611;28;20044;-75
2021/09/07 15:36:46;;;;;;;11.05;9.93;;;;;;;28.67;40.02;102098.84;10521179;28;20044;-75
2021/09/07 15:41:48;;;;;;;11.80;8.95;;;;;;;28.79;42.90;102140.28;10538543;28;20122;-75
2021/09/07 15:46:48;;;;;;;16.00;11.60;;;;;;;28.41;41.23;102093.47;10538909;28;20043;-75
2021/09/07 15:51:48;;;;;;;14.18;8.85;;;;;;;28.62;42.24;102129.53;10540148;28;20056;-74
2021/09/07 15:56:49;;;;;;;21.73;8.82;;;;;;;28.16;40.50;102061.00;10547698;28;20078;-75
2021/09/07 16:01:49;;;;;;;10.50;9.02;;;;;;;28.10;41.97;102058.53;10547323;28;20113;-75
2021/09/07 16:06:50;;;;;;;9.85;8.48;;;;;;;28.26;41.68;102129.72;10528336;28;20036;-75
2021/09/07 16:11:53;;;;;;;10.65;9.10;;;;;;;27.52;40.34;102082.16;10528603;28;20032;-75
2021/09/07 16:16:54;;;;;;;15.55;8.73;;;;;;;27.96;40.59;102131.56;10528976;28;20111;-75
2021/09/07 16:21:54;;;;;;;12.52;8.88;;;;;;;27.73;40.90;102104.34;10545959;28;20574;-75
2021/09/07 16:26:55;;;;;;;15.45;10.48;;;;;;;27.74;41.74;102131.91;10546510;28;20032;-75
2021/09/07 16:31:55;;;;;;;15.45;10.90;;;;;;;27.81;42.64;102126.06;10546105;28;20036;-75
2021/09/07 16:36:55;;;;;;;15.43;12.68;;;;;;;27.80;42.87;102118.84;10526666;28;20047;-75
2021/09/07 16:41:56;;;;;;;20.65;13.30;;;;;;;27.57;43.09;102107.19;10546491;28;20071;-75
2021/09/07 16:46:56;;;;;;;21.40;11.73;;;;;;;27.58;42.50;102110.81;10545404;28;20051;-75
2021/09/07 16:51:57;;;;;;;19.05;13.60;;;;;;;27.01;44.02;102071.13;10526780;28;20052;-75
2021/09/07 16:56:58;;;;;;;14.40;11.52;;;;;;;27.13;45.23;102093.06;10545022;28;20039;-75
2021/09/07 17:01:58;;;;;;;19.80;14.70;;;;;;;27.17;43.53;102102.53;10527167;28;20043;-75
2021/09/07 17:06:59;;;;;;;15.75;12.52;;;;;;;27.21;44.34;102097.25;10543584;28;20395;-74
2021/09/07 17:12:00;;;;;;;14.35;12.63;;;;;;;26.39;44.33;102000.84;10545035;28;20064;-75
2021/09/07 17:17:01;;;;;;;12.77;11.43;;;;;;;26.95;44.21;102090.88;10544516;28;20036;-75
2021/09/07 17:22:01;;;;;;;14.88;12.88;;;;;;;26.93;45.06;102081.97;10525504;28;20044;-74
2021/09/07 17:27:02;;;;;;;14.95;11.10;;;;;;;26.80;44.39;102059.19;10543816;28;20119;-75
2021/09/07 17:32:10;;;;;;;12.50;11.13;;;;;;;26.77;44.50;102078.34;10544426;28;20040;-75
2021/09/07 17:37:23;;;;;;;18.63;13.15;;;;;;;26.55;44.48;102051.69;10543589;28;20118;-75
2021/09/07 17:42:23;;;;;;;18.67;12.93;;;;;;;26.25;44.83;102037.75;10543551;28;20036;-74
2021/09/07 17:47:23;;;;;;;21.73;11.35;;;;;;;26.58;44.53;102070.59;10542947;28;20111;-75
2021/09/07 17:52:24;;;;;;;16.30;11.50;;;;;;;26.31;46.50;102062.47;10542156;28;20180;-74
2021/09/07 17:57:24;;;;;;;18.50;12.20;;;;;;;26.32;46.03;102071.63;10542957;28;20036;-75
2021/09/07 18:02:25;;;;;;;17.83;14.05;;;;;;;26.04;47.70;102051.59;10543577;28;20055;-75
2021/09/07 18:07:26;;;;;;;13.95;11.15;;;;;;;25.52;45.96;101972.03;10524276;28;20066;-75
2021/09/07 18:12:26;;;;;;;20.23;11.23;;;;;;;25.75;45.93;102045.66;10490995;28;20043;-75
2021/09/07 18:17:27;;;;;;;20.48;12.30;;;;;;;24.62;46.28;101866.84;10506251;28;20078;-74
2021/09/07 18:22:29;;;;;;;18.40;12.70;;;;;;;25.81;46.49;102083.41;10542458;28;20040;-75
2021/09/07 18:27:29;;;;;;;18.42;13.45;;;;;;;25.68;46.74;102081.13;10542278;28;20169;-74
2021/09/07 18:32:30;;;;;;;21.20;11.52;;;;;;;25.48;47.24;102084.63;10541754;28;20556;-74
2021/09/07 18:37:31;;;;;;;15.95;13.05;;;;;;;25.17;47.84;102056.72;10506093;28;20399;-76
2021/09/07 18:42:32;;;;;;;16.58;12.48;;;;;;;25.09;48.27;102057.19;10471488;28;20495;-73
2021/09/07 18:47:33;;;;;;;20.63;12.40;;;;;;;25.14;48.28;102075.81;10522091;28;20363;-73
2021/09/07 18:52:33;;;;;;;21.52;14.05;;;;;;;25.10;48.73;102081.03;10540229;28;20543;-74
2021/09/07 18:57:35;;;;;;;17.88;14.90;;;;;;;24.81;49.46;102059.22;10540278;28;20106;-75
2021/09/07 19:02:35;;;;;;;20.02;15.05;;;;;;;24.65;49.33;102042.75;10522470;28;20121;-73
2021/09/07 19:07:35;;;;;;;20.15;13.27;;;;;;;24.72;49.59;102088.50;10521996;28;20193;-74
2021/09/07 19:12:36;;;;;;;21.90;15.07;;;;;;;24.73;49.47;102100.41;10521397;28;20036;-73
2021/09/07 19:17:38;;;;;;;22.00;16.25;;;;;;;24.66;49.70;102088.72;10539750;28;20040;-73
2021/09/07 19:22:39;;;;;;;28.25;16.17;;;;;;;24.58;49.63;102084.50;10538611;28;20039;-73
2021/09/07 19:27:39;;;;;;;18.25;14.38;;;;;;;24.52;49.93;102085.56;10538641;28;20039;-73
2021/09/07 19:32:39;;;;;;;23.00;15.75;;;;;;;24.42;50.19;102097.38;10521287;28;20047;-73
2021/09/07 19:37:43;;;;;;;22.20;14.68;;;;;;;24.21;50.07;102060.28;10539657;28;20107;-73
2021/09/07 19:42:43;;;;;;;17.67;13.70;;;;;;;24.16;49.81;102067.72;10502458;28;20079;-73
2021/09/07 19:47:44;;;;;;;19.70;14.90;;;;;;;24.26;49.70;102096.34;10538376;28;20117;-74
2021/09/07 19:52:47;;;;;;;18.73;15.18;;;;;;;23.39;49.72;101976.38;10538909;28;20056;-74
2021/09/07 19:57:48;;;;;;;22.52;15.23;;;;;;;24.00;50.03;102091.63;10504034;28;20036;-73
2021/09/07 20:02:48;;;;;;;23.15;16.83;;;;;;;23.79;50.91;102085.81;10519589;28;20040;-73
2021/09/07 20:07:48;;;;;;;23.00;16.58;;;;;;;23.60;51.75;102082.50;10538552;28;20032;-73
2021/09/07 20:12:49;;;;;;;25.52;17.75;;;;;;;23.23;52.36;102029.78;10520186;28;20094;-74
2021/09/07 20:17:49;;;;;;;26.52;17.92;;;;;;;23.41;52.49;102092.19;10538239;28;20102;-73
2021/09/07 20:22:50;;;;;;;30.55;18.98;;;;;;;23.35;53.07;102074.69;10537345;28;20040;-73
2021/09/07 20:27:50;;;;;;;26.98;19.88;;;;;;;23.23;53.61;102070.38;10537867;28;20035;-74
2021/09/07 20:32:52;;;;;;;24.33;17.75;;;;;;;23.13;54.29;102071.91;10537826;28;20368;-73
2021/09/07 20:37:52;;;;;;;29.80;19.02;;;;;;;23.07;54.07;102072.91;10520267;28;20028;-73
2021/09/07 20:42:53;;;;;;;24.80;19.30;;;;;;;22.20;54.37;101938.94;10545543;28;20079;-74
2021/09/07 20:47:53;;;;;;;25.27;18.35;;;;;;;23.00;54.05;102068.63;10529299;28;20059;-76
2021/09/07 20:52:54;;;;;;;22.08;17.52;;;;;;;22.91;54.05;102057.13;10545195;28;20051;-75
2021/09/07 20:57:54;;;;;;;26.58;17.33;;;;;;;22.91;54.30;102063.53;10544850;28;20047;-75
2021/09/07 21:02:54;;;;;;;25.00;15.82;;;;;;;22.58;54.44;102031.22;10544397;28;20502;-75
2021/09/07 21:07:55;;;;;;;22.08;16.73;;;;;;;22.47;54.06;102004.53;10544381;28;20044;-76
2021/09/07 21:12:55;;;;;;;25.85;17.63;;;;;;;22.22;54.54;101978.16;10545376;28;20040;-75
2021/09/07 21:17:55;;;;;;;26.00;16.67;;;;;;;22.24;56.26;102020.16;10544004;28;20134;-75
2021/09/07 21:22:58;;;;;;;23.55;16.75;;;;;;;21.31;56.48;101886.25;10525605;28;20043;-74
2021/09/07 21:27:58;;;;;;;18.10;16.20;;;;;;;22.38;56.22;102050.19;10525653;28;20032;-75
2021/09/07 21:32:58;;;;;;;21.17;15.48;;;;;;;22.40;56.32;102053.53;10525757;28;20035;-75
2021/09/07 21:37:59;;;;;;;24.23;15.30;;;;;;;22.20;55.80;102010.69;10525505;28;20040;-75
2021/09/07 21:42:59;;;;;;;25.30;14.63;;;;;;;22.37;55.52;102041.09;10543620;28;20074;-75
2021/09/07 21:48:00;;;;;;;23.73;15.88;;;;;;;22.37;55.38;102046.59;10543507;28;20036;-75
2021/09/07 21:53:00;;;;;;;14.23;12.80;;;;;;;22.24;55.35;102027.59;10542287;28;20060;-75
2021/09/07 21:58:00;;;;;;;24.73;15.98;;;;;;;22.32;55.17;102046.50;10524991;28;20028;-75
2021/09/07 22:03:01;;;;;;;29.67;13.35;;;;;;;21.66;54.47;101930.22;10544544;28;20072;-75
2021/09/07 22:08:01;;;;;;;25.05;12.85;;;;;;;22.21;54.08;102025.34;10524729;28;20483;-75
2021/09/07 22:13:02;;;;;;;15.50;13.82;;;;;;;22.29;53.73;102049.75;10542545;28;20173;-75
2021/09/07 22:18:02;;;;;;;21.90;14.15;;;;;;;22.18;53.94;102050.66;10524070;28;20032;-75
2021/09/07 22:23:03;;;;;;;20.13;12.35;;;;;;;22.04;54.41;102042.63;10523154;28;20098;-75
2021/09/07 22:28:03;;;;;;;17.05;13.18;;;;;;;21.10;54.83;101918.06;10541540;28;20123;-75
2021/09/07 22:33:04;;;;;;;28.60;13.85;;;;;;;21.64;55.34;102028.06;10541647;28;20392;-75
2021/09/07 22:38:04;;;;;;;21.85;13.73;;;;;;;20.87;55.09;101910.69;10523315;28;20451;-75
2021/09/07 22:43:04;;;;;;;16.50;14.02;;;;;;;21.61;55.50;102029.38;10523029;28;20102;-75